Magnet, Nebraska
Current Conditions -  °F | °C
As of 5:15 PM on Tuesday 25 Nov 2014 (Local Time) from KLCG Reporting Station
Overcast Overcast  
Wind Chill: 32°   Ceiling: 9000
Heat Index: 40°   Visibility: 10mi
Dew Point: 27°   Wind: 12mph
Humidity: 60%   Direction: 170°S
Pressure: 29.88"   Gusts: NA
Location:  42.46°N, 97.47°W
Report Text: KLCG 252315Z AUTO 17010KT 10SM OVC090 04/M03 A2988 RMK AO2 T00421030
Loading
Personal Weather Stations






























Interactive Weather Map New forecast layout! Learn more

10-Day Weather Forecast

Advertisements
Track Severe Weather on mobile